createdAt,value
2019-01-22T00:01:42.325Z,-4.60
2019-01-22T00:04:33.150Z,-4.66
2019-01-22T00:07:03.572Z,-4.73
2019-01-22T00:09:33.957Z,-4.70
2019-01-22T00:12:04.685Z,-4.74
2019-01-22T00:14:35.373Z,-4.76
2019-01-22T00:17:06.278Z,-4.75
2019-01-22T00:19:36.929Z,-4.80
2019-01-22T00:22:07.767Z,-4.89
2019-01-22T00:24:38.275Z,-4.87
2019-01-22T00:27:08.889Z,-4.89
2019-01-22T00:29:40.269Z,-4.86
2019-01-22T00:32:10.994Z,-4.79
2019-01-22T00:34:41.536Z,-4.80
2019-01-22T00:37:12.218Z,-4.79
2019-01-22T00:39:43.135Z,-4.83
2019-01-22T00:42:14.765Z,-4.91
2019-01-22T00:44:45.554Z,-4.83
2019-01-22T00:47:16.182Z,-4.87
2019-01-22T00:49:47.405Z,-4.90
2019-01-22T00:52:18.176Z,-4.89
2019-01-22T00:54:48.852Z,-4.87
2019-01-22T00:57:19.380Z,-4.88
2019-01-22T00:59:50.283Z,-4.89
2019-01-22T01:02:21.925Z,-5.01
2019-01-22T01:04:52.624Z,-5.10
2019-01-22T01:07:23.139Z,-5.04
2019-01-22T01:09:53.287Z,-4.89
2019-01-22T01:12:23.932Z,-4.92
2019-01-22T01:14:54.745Z,-4.96
2019-01-22T01:17:25.098Z,-4.92
2019-01-22T01:19:54.671Z,-4.85
2019-01-22T01:22:24.064Z,-4.91
2019-01-22T01:24:53.867Z,-4.90
2019-01-22T01:27:23.170Z,-4.93
2019-01-22T01:29:52.490Z,-5.10
2019-01-22T01:32:23.085Z,-5.02
2019-01-22T01:34:52.614Z,-5.06
2019-01-22T01:37:21.917Z,-5.11
2019-01-22T01:39:51.316Z,-5.10
2019-01-22T01:42:20.889Z,-5.39
2019-01-22T01:44:50.598Z,-5.13
2019-01-22T01:47:19.899Z,-5.12
2019-01-22T01:49:49.720Z,-5.13
2019-01-22T01:52:19.454Z,-5.07
2019-01-22T01:54:49.061Z,-4.99
2019-01-22T01:57:18.737Z,-5.01
2019-01-22T01:59:48.068Z,-4.97
2019-01-22T02:02:17.362Z,-4.91
2019-01-22T02:04:46.690Z,-4.85
2019-01-22T02:07:16.030Z,-5.00
2019-01-22T02:09:45.358Z,-5.01
2019-01-22T02:12:16.294Z,-4.98
2019-01-22T02:14:48.662Z,-4.94
2019-01-22T02:17:27.276Z,-4.99
2019-01-22T02:20:07.823Z,-4.99
2019-01-22T02:22:58.332Z,-5.02
2019-01-22T02:25:53.610Z,-5.00
2019-01-22T02:28:40.253Z,-5.04
2019-01-22T02:31:21.568Z,-5.18
2019-01-22T02:34:02.947Z,-5.15
2019-01-22T02:36:47.340Z,-5.17
2019-01-22T02:39:22.351Z,-5.21
2019-01-22T02:41:55.194Z,-5.33
2019-01-22T02:44:50.220Z,-5.27
2019-01-22T02:47:34.429Z,-5.26
2019-01-22T02:50:09.912Z,-5.25
2019-01-22T02:53:00.363Z,-5.22
2019-01-22T02:55:38.733Z,-5.26
2019-01-22T02:58:11.125Z,-5.27
2019-01-22T03:01:10.695Z,-5.26
2019-01-22T03:03:43.069Z,-5.32
2019-01-22T03:06:24.506Z,-5.18
2019-01-22T03:09:15.058Z,-5.21
2019-01-22T03:12:02.695Z,-5.26
2019-01-22T03:15:09.683Z,-5.27
2019-01-22T03:17:42.044Z,-5.37
2019-01-22T03:20:26.699Z,-5.48
2019-01-22T03:23:04.794Z,-5.49
2019-01-22T03:25:46.615Z,-5.55
2019-01-22T03:28:33.278Z,-5.41
2019-01-22T03:31:17.318Z,-5.47
2019-01-22T03:33:49.685Z,-5.68
2019-01-22T03:36:24.698Z,-5.72
2019-01-22T03:39:18.126Z,-5.72
2019-01-22T03:42:13.854Z,-5.83
2019-01-22T03:44:54.999Z,-5.74
2019-01-22T03:47:42.462Z,-5.65
2019-01-22T03:50:45.256Z,-5.62
2019-01-22T03:53:32.783Z,-5.70
2019-01-22T03:56:07.605Z,-5.80
2019-01-22T03:58:36.932Z,-5.68
2019-01-22T04:01:06.727Z,-5.63
2019-01-22T04:03:36.140Z,-5.58
2019-01-22T04:06:07.690Z,-5.54
2019-01-22T04:08:37.531Z,-5.42
2019-01-22T04:11:07.888Z,-5.54
2019-01-22T04:13:37.205Z,-5.64
2019-01-22T04:16:06.868Z,-5.66
2019-01-22T04:18:36.163Z,-5.53
2019-01-22T04:21:05.940Z,-5.41
2019-01-22T04:23:41.013Z,-5.89
2019-01-22T04:26:13.395Z,-5.75
2019-01-22T04:28:45.762Z,-5.82
2019-01-22T04:31:21.309Z,-6.03
2019-01-22T04:34:08.271Z,-5.80
2019-01-22T04:37:09.507Z,-5.67
2019-01-22T04:39:59.988Z,-5.68
2019-01-22T04:42:35.639Z,-5.75
2019-01-22T04:45:10.916Z,-5.72
2019-01-22T04:47:52.267Z,-5.77
2019-01-22T04:50:42.738Z,-5.85
2019-01-22T04:53:35.963Z,-5.93
2019-01-22T04:56:36.877Z,-5.84
2019-01-22T04:59:09.631Z,-5.67
2019-01-22T05:01:44.963Z,-5.62
2019-01-22T05:04:26.387Z,-5.57
2019-01-22T05:07:15.198Z,-5.57
2019-01-22T05:09:59.801Z,-5.57
2019-01-22T05:12:59.364Z,-5.45
2019-01-22T05:15:46.893Z,-5.41
2019-01-22T05:18:19.259Z,-5.41
2019-01-22T05:21:20.246Z,-5.61
2019-01-22T05:24:18.890Z,-5.54
2019-01-22T05:27:11.263Z,-5.52
2019-01-22T05:29:51.893Z,-5.62
2019-01-22T05:32:45.228Z,-5.53
2019-01-22T05:35:46.421Z,-5.76
2019-01-22T05:38:35.054Z,-5.72
2019-01-22T05:41:22.276Z,-5.75
2019-01-22T05:44:16.000Z,-5.63
2019-01-22T05:46:48.349Z,-5.70
2019-01-22T05:49:36.871Z,-5.77
2019-01-22T05:52:09.214Z,-5.89
2019-01-22T05:54:50.111Z,-6.01
2019-01-22T05:57:20.655Z,-5.84
2019-01-22T06:00:01.722Z,-5.65
2019-01-22T06:02:34.190Z,-5.79
2019-01-22T06:05:12.757Z,-5.84
2019-01-22T06:07:56.816Z,-5.78
2019-01-22T06:10:45.660Z,-5.69
2019-01-22T06:13:42.100Z,-5.73
2019-01-22T06:16:37.120Z,-5.64
2019-01-22T06:19:12.042Z,-5.62
2019-01-22T06:22:02.467Z,-5.73
2019-01-22T06:24:41.031Z,-5.66
2019-01-22T06:27:13.377Z,-5.56
2019-01-22T06:29:45.752Z,-5.54
2019-01-22T06:32:18.442Z,-5.61
2019-01-22T06:35:09.975Z,-5.63
2019-01-22T06:37:42.345Z,-5.49
2019-01-22T06:40:17.549Z,-5.48
2019-01-22T06:42:52.456Z,-5.41
2019-01-22T06:45:33.466Z,-5.51
2019-01-22T06:48:17.828Z,-5.38
2019-01-22T06:51:02.170Z,-5.03
2019-01-22T06:53:40.301Z,-4.92
2019-01-22T06:56:15.636Z,-4.74
2019-01-22T06:58:56.901Z,-4.63
2019-01-22T07:01:38.002Z,-4.52
2019-01-22T07:04:22.241Z,-4.45
2019-01-22T07:06:57.487Z,-4.39
2019-01-22T07:09:46.234Z,-4.49
2019-01-22T07:12:46.037Z,-4.36
2019-01-22T07:15:50.068Z,-4.39
2019-01-22T07:18:31.567Z,-4.38
2019-01-22T07:21:18.981Z,-4.37
2019-01-22T07:24:06.371Z,-4.29
2019-01-22T07:27:10.395Z,-4.28
2019-01-22T07:29:59.095Z,-4.24
2019-01-22T07:32:34.081Z,-4.21
2019-01-22T07:35:18.753Z,-4.21
2019-01-22T07:37:51.140Z,-4.12
2019-01-22T07:40:32.216Z,-4.14
2019-01-22T07:43:16.984Z,-4.06
2019-01-22T07:46:05.845Z,-4.04
2019-01-22T07:48:43.992Z,-3.95
2019-01-22T07:51:25.145Z,-3.92
2019-01-22T07:54:00.313Z,-3.87
2019-01-22T07:56:41.851Z,-3.74
2019-01-22T07:59:26.626Z,-3.77
2019-01-22T08:02:19.500Z,-3.73
2019-01-22T08:05:10.826Z,-3.74
2019-01-22T08:08:02.599Z,-3.87
2019-01-22T08:10:49.761Z,-3.84
2019-01-22T08:13:43.377Z,-3.70
2019-01-22T08:16:18.575Z,-3.57
2019-01-22T08:18:53.679Z,-3.49
2019-01-22T08:21:34.999Z,-3.46
2019-01-22T08:24:19.507Z,-3.60
2019-01-22T08:27:17.596Z,-3.60
2019-01-22T08:29:49.969Z,-3.61
2019-01-22T08:32:38.645Z,-3.44
2019-01-22T08:35:22.318Z,-3.28
2019-01-22T08:38:11.135Z,-2.92
2019-01-22T08:40:46.438Z,-2.86
2019-01-22T08:43:24.648Z,-3.01
2019-01-22T08:46:17.546Z,-2.70
2019-01-22T08:48:58.736Z,-2.62
2019-01-22T08:51:47.563Z,-2.61
2019-01-22T08:54:48.797Z,-2.31
2019-01-22T08:57:37.697Z,-1.90
2019-01-22T09:00:21.379Z,-1.51
2019-01-22T09:02:53.698Z,-1.02
2019-01-22T09:05:28.873Z,-0.48
2019-01-22T09:08:09.832Z,0.96
2019-01-22T09:10:53.046Z,2.03
2019-01-22T09:13:51.150Z,2.45
2019-01-22T09:16:41.474Z,2.15
2019-01-22T09:19:17.006Z,3.22
2019-01-22T09:22:10.323Z,2.12
2019-01-22T09:24:45.510Z,0.83
2019-01-22T09:27:23.230Z,1.79
2019-01-22T09:30:15.242Z,1.99
2019-01-22T09:33:04.055Z,1.92
2019-01-22T09:35:51.220Z,1.69
2019-01-22T09:38:20.521Z,1.25
2019-01-22T09:40:50.106Z,0.54
2019-01-22T09:43:19.459Z,-0.05
2019-01-22T09:45:48.863Z,-0.11
2019-01-22T09:48:18.187Z,0.28
2019-01-22T09:50:47.874Z,0.40
2019-01-22T09:53:17.214Z,0.85
2019-01-22T09:55:46.498Z,-0.07
2019-01-22T09:58:15.824Z,0.97
2019-01-22T10:00:45.121Z,1.21
2019-01-22T10:03:14.555Z,0.27
2019-01-22T10:05:44.028Z,0.33
2019-01-22T10:08:13.353Z,0.18
2019-01-22T10:10:42.657Z,0.73
2019-01-22T10:13:13.702Z,1.10
2019-01-22T10:15:43.064Z,0.92
2019-01-22T10:18:12.819Z,0.32
2019-01-22T10:20:42.121Z,-0.15
2019-01-22T10:23:11.515Z,-0.19
2019-01-22T10:25:40.799Z,0.26
2019-01-22T10:28:10.115Z,0.48
2019-01-22T10:30:39.687Z,0.13
2019-01-22T10:33:09.006Z,1.00
2019-01-22T10:35:39.919Z,0.55
2019-01-22T10:38:09.248Z,0.49
2019-01-22T10:40:38.932Z,0.33
2019-01-22T10:43:09.372Z,0.86
2019-01-22T10:45:39.393Z,-0.18
2019-01-22T10:48:11.407Z,0.57
2019-01-22T10:50:41.276Z,1.11
2019-01-22T10:53:10.593Z,1.33
2019-01-22T10:55:40.022Z,1.55
2019-01-22T10:58:09.421Z,0.98
2019-01-22T11:00:38.751Z,0.83
2019-01-22T11:03:08.976Z,0.54
2019-01-22T11:05:40.544Z,1.38
2019-01-22T11:08:10.220Z,1.16
2019-01-22T11:10:39.553Z,0.79
2019-01-22T11:13:08.919Z,0.61
2019-01-22T11:15:38.388Z,1.22
2019-01-22T11:18:07.665Z,1.17
2019-01-22T11:20:37.006Z,0.35
2019-01-22T11:23:06.393Z,-0.02
2019-01-22T11:25:43.280Z,0.70
2019-01-22T11:28:07.560Z,0.27
2019-01-22T11:30:37.174Z,0.35
2019-01-22T11:33:06.848Z,1.14
2019-01-22T11:35:36.186Z,1.15
2019-01-22T11:38:12.557Z,1.60
2019-01-22T11:40:44.518Z,1.69
2019-01-22T11:43:13.822Z,2.11
2019-01-22T11:45:43.142Z,2.53
2019-01-22T11:48:12.946Z,2.42
2019-01-22T11:50:42.331Z,2.42
2019-01-22T11:53:11.616Z,1.77
2019-01-22T11:55:40.916Z,1.58
2019-01-22T11:58:10.364Z,2.81
2019-01-22T12:00:47.421Z,3.07
2019-01-22T12:03:16.714Z,1.95
2019-01-22T12:05:46.606Z,2.70
2019-01-22T12:08:16.052Z,2.93
2019-01-22T12:10:45.670Z,3.01
2019-01-22T12:13:15.057Z,2.35
2019-01-22T12:15:47.391Z,2.51
2019-01-22T12:18:15.435Z,2.81
2019-01-22T12:20:45.763Z,4.21
2019-01-22T12:23:15.183Z,3.92
2019-01-22T12:25:44.641Z,3.51
2019-01-22T12:28:13.941Z,5.30
2019-01-22T12:30:43.227Z,3.35
2019-01-22T12:33:12.538Z,3.64
2019-01-22T12:35:41.959Z,4.34
2019-01-22T12:38:11.265Z,4.13
2019-01-22T12:40:40.544Z,3.06
2019-01-22T12:43:09.919Z,3.84
2019-01-22T12:45:39.695Z,1.47
2019-01-22T12:48:09.731Z,2.26
2019-01-22T12:50:39.151Z,2.81
2019-01-22T12:53:08.726Z,2.90
2019-01-22T12:55:38.049Z,0.87
2019-01-22T12:58:07.704Z,1.76
2019-01-22T13:00:38.645Z,1.77
2019-01-22T13:03:08.590Z,0.72
2019-01-22T13:05:43.939Z,1.21
2019-01-22T13:08:13.668Z,0.94
2019-01-22T13:10:42.983Z,0.15
2019-01-22T13:13:12.317Z,0.44
2019-01-22T13:15:41.641Z,-0.05
2019-01-22T13:18:10.945Z,-0.17
2019-01-22T13:20:40.521Z,-0.15
2019-01-22T13:23:09.810Z,0.18
2019-01-22T13:25:39.188Z,0.19
2019-01-22T13:28:08.492Z,0.47
2019-01-22T13:30:37.878Z,0.39
2019-01-22T13:33:07.228Z,0.05
2019-01-22T13:35:36.554Z,-0.13
2019-01-22T13:38:06.154Z,-0.01
2019-01-22T13:40:35.643Z,-0.12
2019-01-22T13:43:05.138Z,-0.12
2019-01-22T13:45:37.628Z,0.03
2019-01-22T13:48:10.378Z,0.06
2019-01-22T13:50:39.749Z,-0.23
2019-01-22T13:53:09.052Z,-0.06
2019-01-22T13:55:39.813Z,-0.17
2019-01-22T13:58:09.088Z,0.04
2019-01-22T14:00:38.406Z,0.02
2019-01-22T14:03:08.323Z,-0.02
2019-01-22T14:05:37.630Z,0.13
2019-01-22T14:08:07.007Z,0.09
2019-01-22T14:10:36.378Z,-0.21
2019-01-22T14:13:05.764Z,-0.12
2019-01-22T14:15:40.588Z,0.03
2019-01-22T14:18:10.517Z,0.08
2019-01-22T14:20:39.820Z,0.15
2019-01-22T14:23:10.082Z,-0.02
2019-01-22T14:25:39.423Z,0.14
2019-01-22T14:28:09.229Z,-0.18
2019-01-22T14:30:39.891Z,-0.17
2019-01-22T14:33:09.223Z,-0.18
2019-01-22T14:35:38.500Z,-0.10
2019-01-22T14:38:07.960Z,-0.13
2019-01-22T14:40:37.240Z,-0.13
2019-01-22T14:43:06.623Z,-0.34
2019-01-22T14:45:36.007Z,-0.11
2019-01-22T14:48:05.880Z,0.08
2019-01-22T14:50:35.348Z,0.13
2019-01-22T14:53:05.012Z,-0.05
2019-01-22T14:55:34.507Z,-0.08
2019-01-22T14:58:04.294Z,-0.07
2019-01-22T15:00:33.673Z,-0.10
2019-01-22T15:03:03.612Z,-0.18
2019-01-22T15:05:32.902Z,-0.17
2019-01-22T15:08:02.295Z,-0.37
2019-01-22T15:10:32.155Z,-0.31
2019-01-22T15:13:01.467Z,-0.25
2019-01-22T15:15:30.948Z,-0.51
2019-01-22T15:18:00.286Z,-0.62
2019-01-22T15:20:29.954Z,-0.56
2019-01-22T15:22:59.266Z,-0.57
2019-01-22T15:25:28.790Z,-0.51
2019-01-22T15:27:58.075Z,-0.43
2019-01-22T15:30:33.104Z,-0.34
2019-01-22T15:33:02.471Z,-0.50
2019-01-22T15:35:31.779Z,-0.67
2019-01-22T15:38:01.136Z,-0.57
2019-01-22T15:40:31.989Z,-0.47
2019-01-22T15:43:01.300Z,-0.58
2019-01-22T15:45:30.981Z,-0.55
2019-01-22T15:48:00.247Z,-0.35
2019-01-22T15:50:29.574Z,-0.46
2019-01-22T15:52:58.888Z,-0.46
2019-01-22T15:55:33.106Z,-0.39
2019-01-22T15:58:02.552Z,-0.60
2019-01-22T16:00:31.931Z,-0.55
2019-01-22T16:03:01.309Z,-0.49
2019-01-22T16:05:30.712Z,-0.64
2019-01-22T16:08:00.028Z,-0.12
2019-01-22T16:10:29.360Z,-0.18
2019-01-22T16:12:58.760Z,-0.34
2019-01-22T16:15:28.088Z,-0.51
2019-01-22T16:17:57.391Z,-0.50
2019-01-22T16:20:27.683Z,-0.55
2019-01-22T16:22:57.097Z,-0.61
2019-01-22T16:25:26.740Z,-0.74
2019-01-22T16:27:57.396Z,-0.94
2019-01-22T16:30:27.211Z,-0.76
2019-01-22T16:32:56.544Z,-0.75
2019-01-22T16:35:26.376Z,-0.71
2019-01-22T16:37:55.976Z,-0.85
2019-01-22T16:40:25.597Z,-0.82
2019-01-22T16:42:54.912Z,-0.70
2019-01-22T16:45:27.433Z,-0.70
2019-01-22T16:47:56.936Z,-0.78
2019-01-22T16:50:27.844Z,-0.93
2019-01-22T16:52:57.183Z,-0.71
2019-01-22T16:55:29.615Z,-0.61
2019-01-22T16:57:58.944Z,-0.80
2019-01-22T17:00:31.051Z,-0.94
2019-01-22T17:03:00.375Z,-0.73
2019-01-22T17:05:30.048Z,-0.80
2019-01-22T17:07:59.415Z,-0.94
2019-01-22T17:10:29.198Z,-0.82
2019-01-22T17:12:58.884Z,-0.84
2019-01-22T17:15:28.376Z,-0.92
2019-01-22T17:17:57.774Z,-0.85
2019-01-22T17:20:32.710Z,-0.84
2019-01-22T17:23:02.541Z,-0.99
2019-01-22T17:25:32.030Z,-1.08
2019-01-22T17:28:01.522Z,-1.14
2019-01-22T17:30:31.092Z,-0.93
2019-01-22T17:33:02.163Z,-0.92
2019-01-22T17:35:33.150Z,-0.94
2019-01-22T17:38:02.460Z,-1.12
2019-01-22T17:40:31.844Z,-0.84
2019-01-22T17:43:01.227Z,-0.69
2019-01-22T17:45:30.575Z,-0.89
2019-01-22T17:48:00.004Z,-0.93
2019-01-22T17:50:29.359Z,-0.99
2019-01-22T17:52:58.642Z,-0.95
2019-01-22T17:55:27.974Z,-0.81
2019-01-22T17:57:57.309Z,-0.81
2019-01-22T18:00:28.282Z,-0.74
2019-01-22T18:02:57.571Z,-0.90
2019-01-22T18:05:27.039Z,-1.02
2019-01-22T18:07:56.334Z,-0.90
2019-01-22T18:10:27.374Z,-1.03
2019-01-22T18:12:56.771Z,-0.87
2019-01-22T18:15:26.107Z,-0.99
2019-01-22T18:17:55.409Z,-0.98
2019-01-22T18:20:29.253Z,-0.85
2019-01-22T18:22:58.550Z,-0.89
2019-01-22T18:25:27.878Z,-0.92
2019-01-22T18:27:57.343Z,-1.09
2019-01-22T18:30:27.595Z,-0.92
2019-01-22T18:32:56.994Z,-0.91
2019-01-22T18:35:38.092Z,-0.84
2019-01-22T18:38:06.362Z,-1.02
2019-01-22T18:40:35.787Z,-0.99
2019-01-22T18:43:05.488Z,-0.83
2019-01-22T18:45:34.795Z,-0.98
2019-01-22T18:48:04.708Z,-1.00
2019-01-22T18:50:33.977Z,-0.88
2019-01-22T18:53:03.393Z,-0.77
2019-01-22T18:55:32.729Z,-1.00
2019-01-22T18:58:02.057Z,-0.98
2019-01-22T19:00:31.345Z,-0.86
2019-01-22T19:03:00.702Z,-0.79
2019-01-22T19:05:30.117Z,-0.97
2019-01-22T19:07:59.685Z,-0.85
2019-01-22T19:10:29.597Z,-0.74
2019-01-22T19:12:58.936Z,-0.78
2019-01-22T19:15:28.626Z,-0.69
2019-01-22T19:17:57.941Z,-0.61
2019-01-22T19:20:27.423Z,-0.80
2019-01-22T19:22:56.946Z,-0.75
2019-01-22T19:25:28.473Z,-0.94
2019-01-22T19:27:57.807Z,-0.68
2019-01-22T19:30:29.618Z,-0.50
2019-01-22T19:32:59.085Z,-0.71
2019-01-22T19:35:28.921Z,-0.62
2019-01-22T19:37:58.290Z,-0.58
2019-01-22T19:40:28.162Z,-0.68
2019-01-22T19:42:57.680Z,-0.53
2019-01-22T19:45:29.669Z,-0.51
2019-01-22T19:47:59.073Z,-0.58
2019-01-22T19:50:28.992Z,-0.47
2019-01-22T19:52:58.488Z,-0.46
2019-01-22T19:55:27.780Z,-0.49
2019-01-22T19:57:57.090Z,-0.63
2019-01-22T20:00:34.885Z,-0.55
2019-01-22T20:03:05.967Z,-0.60
2019-01-22T20:05:36.056Z,-0.56
2019-01-22T20:08:06.120Z,-0.70
2019-01-22T20:10:35.508Z,-0.50
2019-01-22T20:13:05.600Z,-0.59
2019-01-22T20:15:35.014Z,-0.58
2019-01-22T20:18:05.012Z,-0.54
2019-01-22T20:20:34.576Z,-0.67
2019-01-22T20:23:04.183Z,-0.57
2019-01-22T20:25:33.910Z,-0.66
2019-01-22T20:28:03.215Z,-0.51
2019-01-22T20:30:34.965Z,-0.42
2019-01-22T20:33:04.890Z,-0.47
2019-01-22T20:35:34.472Z,-0.59
2019-01-22T20:38:04.212Z,-0.51
2019-01-22T20:40:33.507Z,-0.44
2019-01-22T20:43:02.889Z,-0.51
2019-01-22T20:45:32.320Z,-0.47
2019-01-22T20:48:01.728Z,-0.58
2019-01-22T20:50:31.245Z,-0.64
2019-01-22T20:53:00.546Z,-0.77
2019-01-22T20:55:29.909Z,-0.80
2019-01-22T20:57:59.245Z,-0.80
2019-01-22T21:00:28.799Z,-0.74
2019-01-22T21:02:58.118Z,-0.75
2019-01-22T21:05:29.714Z,-0.78
2019-01-22T21:07:59.181Z,-0.77
2019-01-22T21:10:33.132Z,-0.68
2019-01-22T21:13:02.729Z,-0.52
2019-01-22T21:15:32.226Z,-0.49
2019-01-22T21:18:01.682Z,-0.48
2019-01-22T21:20:31.041Z,-0.40
2019-01-22T21:23:00.501Z,-0.49
2019-01-22T21:25:29.822Z,-0.44
2019-01-22T21:28:01.824Z,-0.41
2019-01-22T21:30:32.867Z,-0.27
2019-01-22T21:33:03.274Z,-0.32
2019-01-22T21:35:32.643Z,-0.46
2019-01-22T21:38:02.403Z,-0.47
2019-01-22T21:40:31.696Z,-0.50
2019-01-22T21:43:01.254Z,-0.42
2019-01-22T21:45:31.217Z,-0.53
2019-01-22T21:48:00.515Z,-0.61
2019-01-22T21:50:29.940Z,-0.59
2019-01-22T21:52:59.275Z,-0.66
2019-01-22T21:55:28.658Z,-0.73
2019-01-22T21:57:57.966Z,-0.75
2019-01-22T22:00:28.104Z,-0.86
2019-01-22T22:02:57.449Z,-0.93
2019-01-22T22:05:29.793Z,-0.96
2019-01-22T22:07:59.196Z,-0.91
2019-01-22T22:10:28.553Z,-0.86
2019-01-22T22:12:57.907Z,-0.85
2019-01-22T22:15:27.805Z,-0.92
2019-01-22T22:17:57.143Z,-0.95
2019-01-22T22:20:26.560Z,-0.93
2019-01-22T22:22:55.946Z,-1.06
2019-01-22T22:25:25.226Z,-1.11
2019-01-22T22:27:54.562Z,-0.98
2019-01-22T22:30:29.364Z,-1.22
2019-01-22T22:32:58.776Z,-1.04
2019-01-22T22:35:28.096Z,-0.92
2019-01-22T22:37:57.534Z,-1.12
2019-01-22T22:40:26.930Z,-1.18
2019-01-22T22:42:56.208Z,-1.07
2019-01-22T22:45:25.975Z,-1.20
2019-01-22T22:47:55.350Z,-1.07
2019-01-22T22:50:27.200Z,-1.21
2019-01-22T22:52:56.726Z,-1.13
2019-01-22T22:55:26.521Z,-1.13
2019-01-22T22:57:55.807Z,-1.17
2019-01-22T23:00:46.656Z,-1.13
2019-01-22T23:03:17.338Z,-0.98
2019-01-22T23:05:47.851Z,-0.95
2019-01-22T23:08:18.113Z,-0.88
2019-01-22T23:10:48.040Z,-0.92
2019-01-22T23:13:18.579Z,-1.03
2019-01-22T23:15:49.132Z,-0.95
2019-01-22T23:18:19.765Z,-1.21
2019-01-22T23:20:50.371Z,-1.23
2019-01-22T23:23:20.657Z,-1.31
2019-01-22T23:25:51.465Z,-1.11
2019-01-22T23:28:21.712Z,-1.35
2019-01-22T23:30:52.086Z,-1.25
2019-01-22T23:33:22.554Z,-1.22
2019-01-22T23:35:52.988Z,-1.13
2019-01-22T23:38:23.418Z,-1.05
2019-01-22T23:40:53.934Z,-1.07
2019-01-22T23:43:24.193Z,-1.13
2019-01-22T23:45:55.089Z,-1.06
2019-01-22T23:48:25.650Z,-1.20
2019-01-22T23:50:57.592Z,-1.15
2019-01-22T23:53:28.329Z,-1.32
2019-01-22T23:55:58.611Z,-1.14
2019-01-22T23:58:28.920Z,-1.13
